createdAt,value
2019-04-26T00:02:18.843Z,8.17
2019-04-26T00:04:47.772Z,12.07
2019-04-26T00:07:16.638Z,5.10
2019-04-26T00:09:45.720Z,6.70
2019-04-26T00:12:19.075Z,7.57
2019-04-26T00:15:06.228Z,6.93
2019-04-26T00:17:36.808Z,8.47
2019-04-26T00:20:07.790Z,6.13
2019-04-26T00:22:36.551Z,9.80
2019-04-26T00:25:06.835Z,6.47
2019-04-26T00:27:35.575Z,5.47
2019-04-26T00:30:05.797Z,7.00
2019-04-26T00:32:34.601Z,10.07
2019-04-26T00:35:03.380Z,7.03
2019-04-26T00:37:32.193Z,7.90
2019-04-26T00:40:01.026Z,7.03
2019-04-26T00:42:31.071Z,10.10
2019-04-26T00:44:59.830Z,6.17
2019-04-26T00:47:29.330Z,7.63
2019-04-26T00:49:58.786Z,9.13
2019-04-26T00:52:28.852Z,6.00
2019-04-26T00:54:58.671Z,10.10
2019-04-26T00:57:28.301Z,8.27
2019-04-26T00:59:57.369Z,5.27
2019-04-26T01:02:30.592Z,5.83
2019-04-26T01:04:59.322Z,5.70
2019-04-26T01:07:28.167Z,4.80
2019-04-26T01:09:56.920Z,7.20
2019-04-26T01:12:26.011Z,9.07
2019-04-26T01:14:54.801Z,8.80
2019-04-26T01:17:24.494Z,8.23
2019-04-26T01:19:54.842Z,10.27
2019-04-26T01:22:27.519Z,8.33
2019-04-26T01:24:57.403Z,6.73
2019-04-26T01:27:28.610Z,7.57
2019-04-26T01:30:00.310Z,4.67
2019-04-26T01:32:31.107Z,9.33
2019-04-26T01:34:59.839Z,9.13
2019-04-26T01:37:30.959Z,8.07
2019-04-26T01:40:04.575Z,4.83
2019-04-26T01:42:41.620Z,7.03
2019-04-26T01:45:25.838Z,8.43
2019-04-26T01:47:57.551Z,5.37
2019-04-26T01:50:27.795Z,5.67
2019-04-26T01:52:57.609Z,6.87
2019-04-26T01:55:29.273Z,5.80
2019-04-26T01:58:00.788Z,7.87
2019-04-26T02:00:34.706Z,8.20
2019-04-26T02:03:14.614Z,7.40
2019-04-26T02:05:43.364Z,9.50
2019-04-26T02:08:12.120Z,8.10
2019-04-26T02:10:40.860Z,7.27
2019-04-26T02:13:09.720Z,14.30
2019-04-26T02:15:38.455Z,8.70
2019-04-26T02:18:07.204Z,11.33
2019-04-26T02:20:51.602Z,7.60
2019-04-26T02:23:39.918Z,9.80
2019-04-26T02:26:28.265Z,8.27
2019-04-26T02:28:57.416Z,10.17
2019-04-26T02:31:27.359Z,10.97
2019-04-26T02:33:57.621Z,7.73
2019-04-26T02:36:44.926Z,13.50
2019-04-26T02:38:58.964Z,11.30
2019-04-26T02:41:29.941Z,11.97
2019-04-26T02:44:01.739Z,6.83
2019-04-26T02:46:52.928Z,11.67
2019-04-26T02:49:23.709Z,8.13
2019-04-26T02:52:10.635Z,9.60
2019-04-26T02:54:51.151Z,8.40
2019-04-26T02:57:29.774Z,11.30
2019-04-26T03:00:02.234Z,9.20
2019-04-26T03:02:33.238Z,8.80
2019-04-26T03:05:04.837Z,10.00
2019-04-26T03:07:56.833Z,12.87
2019-04-26T03:10:32.637Z,13.53
2019-04-26T03:13:04.487Z,15.00
2019-04-26T03:15:40.343Z,13.67
2019-04-26T03:18:28.338Z,12.77
2019-04-26T03:21:05.239Z,8.73
2019-04-26T03:23:56.345Z,11.77
2019-04-26T03:26:13.195Z,8.37
2019-04-26T03:28:56.850Z,10.13
2019-04-26T03:31:53.308Z,12.63
2019-04-26T03:34:55.391Z,11.47
2019-04-26T03:37:33.802Z,10.70
2019-04-26T03:40:38.976Z,17.20
2019-04-26T03:43:36.075Z,11.73
2019-04-26T03:46:13.610Z,11.97
2019-04-26T03:49:05.045Z,13.47
2019-04-26T03:51:51.504Z,11.03
2019-04-26T03:54:29.635Z,12.10
2019-04-26T03:57:19.360Z,12.60
2019-04-26T03:59:52.708Z,11.40
2019-04-26T04:02:31.759Z,11.90
2019-04-26T04:05:10.670Z,12.10
2019-04-26T04:07:47.204Z,12.40
2019-04-26T04:10:37.482Z,13.20
2019-04-26T04:13:40.732Z,11.70
2019-04-26T04:16:34.693Z,11.10
2019-04-26T04:19:24.678Z,18.90
2019-04-26T04:22:17.248Z,14.17
2019-04-26T04:24:50.625Z,13.53
2019-04-26T04:27:28.546Z,15.03
2019-04-26T04:30:24.755Z,13.03
2019-04-26T04:33:23.499Z,16.00
2019-04-26T04:35:55.182Z,14.23
2019-04-26T04:38:50.612Z,13.23
2019-04-26T04:41:29.632Z,17.60
2019-04-26T04:44:37.632Z,15.63
2019-04-26T04:47:26.028Z,15.70
2019-04-26T04:50:13.919Z,14.60
2019-04-26T04:52:54.685Z,14.20
2019-04-26T04:55:42.807Z,14.07
2019-04-26T04:58:14.616Z,18.13
2019-04-26T05:00:53.955Z,16.00
2019-04-26T05:03:53.186Z,16.73
2019-04-26T05:06:32.181Z,14.23
2019-04-26T05:09:07.066Z,13.73
2019-04-26T05:11:55.026Z,14.30
2019-04-26T05:14:35.862Z,13.00
2019-04-26T05:17:36.592Z,17.00
2019-04-26T05:20:26.033Z,13.00
2019-04-26T05:23:15.917Z,11.80
2019-04-26T05:26:16.320Z,12.13
2019-04-26T05:29:09.453Z,13.07
2019-04-26T05:31:51.521Z,13.20
2019-04-26T05:34:37.024Z,14.90
2019-04-26T05:37:37.247Z,14.17
2019-04-26T05:40:30.007Z,13.67
2019-04-26T05:43:30.183Z,15.83
2019-04-26T05:46:18.268Z,14.43
2019-04-26T05:48:57.879Z,15.73
2019-04-26T05:51:58.414Z,11.37
2019-04-26T05:54:56.145Z,10.03
2019-04-26T05:57:34.829Z,9.73
2019-04-26T06:00:26.212Z,17.27
2019-04-26T06:03:34.704Z,10.97
2019-04-26T06:06:29.153Z,12.03
2019-04-26T06:09:14.145Z,12.77
2019-04-26T06:11:47.466Z,8.20
2019-04-26T06:14:52.944Z,10.67
2019-04-26T06:17:40.724Z,14.23
2019-04-26T06:20:32.186Z,10.00
2019-04-26T06:23:12.995Z,10.73
2019-04-26T06:26:00.909Z,20.53
2019-04-26T06:28:47.900Z,10.67
2019-04-26T06:31:28.772Z,11.37
2019-04-26T06:34:09.381Z,12.23
2019-04-26T06:36:45.446Z,16.23
2019-04-26T06:39:27.669Z,8.00
2019-04-26T06:42:11.657Z,9.93
2019-04-26T06:45:26.528Z,10.00
2019-04-26T06:48:08.461Z,9.10
2019-04-26T06:50:52.306Z,8.70
2019-04-26T06:53:23.994Z,9.83
2019-04-26T06:56:00.907Z,9.40
2019-04-26T06:58:41.403Z,10.70
2019-04-26T07:01:27.923Z,8.23
2019-04-26T07:04:08.297Z,10.50
2019-04-26T07:06:58.201Z,9.63
2019-04-26T07:09:52.626Z,9.33
2019-04-26T07:12:28.932Z,9.17
2019-04-26T07:15:02.166Z,9.30
2019-04-26T07:17:46.147Z,20.00
2019-04-26T07:20:32.382Z,9.03
2019-04-26T07:23:31.112Z,7.93
2019-04-26T07:26:04.553Z,8.97
2019-04-26T07:28:58.186Z,10.23
2019-04-26T07:31:47.868Z,11.07
2019-04-26T07:34:43.652Z,8.80
2019-04-26T07:37:51.375Z,9.63
2019-04-26T07:40:53.218Z,14.33
2019-04-26T07:43:32.453Z,11.83
2019-04-26T07:46:28.209Z,14.13
2019-04-26T07:49:12.535Z,14.37
2019-04-26T07:51:49.736Z,14.73
2019-04-26T07:54:24.226Z,14.77
2019-04-26T07:57:12.880Z,13.77
2019-04-26T07:59:44.536Z,17.27
2019-04-26T08:02:23.783Z,15.10
2019-04-26T08:04:58.112Z,13.33
2019-04-26T08:07:29.913Z,11.47
2019-04-26T08:10:10.594Z,13.07
2019-04-26T08:12:42.020Z,17.63
2019-04-26T08:15:36.956Z,24.10
2019-04-26T08:18:10.821Z,14.57
2019-04-26T08:20:50.087Z,14.37
2019-04-26T08:23:41.138Z,16.97
2019-04-26T08:26:01.386Z,17.23
2019-04-26T08:28:32.772Z,13.63
2019-04-26T08:31:04.767Z,13.23
2019-04-26T08:33:40.980Z,19.70
2019-04-26T08:36:08.854Z,18.10
2019-04-26T08:38:38.380Z,23.57
2019-04-26T08:41:09.749Z,15.67
2019-04-26T08:43:47.478Z,11.43
2019-04-26T08:46:32.313Z,17.37
2019-04-26T08:49:09.655Z,12.27
2019-04-26T08:51:40.525Z,17.87
2019-04-26T08:54:11.714Z,10.53
2019-04-26T08:56:46.203Z,13.63
2019-04-26T08:59:26.812Z,19.67
2019-04-26T09:02:07.018Z,17.53
2019-04-26T09:04:46.628Z,15.70
2019-04-26T09:07:20.056Z,16.87
2019-04-26T09:09:57.320Z,11.93
2019-04-26T09:12:24.051Z,11.37
2019-04-26T09:14:55.980Z,13.83
2019-04-26T09:17:27.887Z,14.83
2019-04-26T09:19:58.145Z,13.23
2019-04-26T09:22:27.915Z,13.30
2019-04-26T09:24:59.432Z,13.17
2019-04-26T09:27:33.124Z,18.87
2019-04-26T09:30:15.320Z,18.00
2019-04-26T09:32:45.888Z,12.07
2019-04-26T09:35:15.259Z,17.20
2019-04-26T09:37:45.062Z,14.73
2019-04-26T09:40:21.197Z,16.73
2019-04-26T09:42:52.399Z,13.80
2019-04-26T09:45:40.718Z,16.17
2019-04-26T09:48:14.087Z,19.17
2019-04-26T09:50:44.492Z,15.47
2019-04-26T09:53:13.365Z,12.33
2019-04-26T09:55:42.186Z,18.87
2019-04-26T09:58:11.023Z,9.50
2019-04-26T10:00:39.896Z,10.27
2019-04-26T10:03:09.299Z,17.07
2019-04-26T10:05:39.133Z,10.97
2019-04-26T10:08:08.273Z,17.10
2019-04-26T10:10:38.311Z,16.50
2019-04-26T10:13:24.843Z,16.80
2019-04-26T10:16:04.327Z,16.50
2019-04-26T10:18:33.559Z,12.43
2019-04-26T10:21:02.393Z,18.30
2019-04-26T10:23:31.208Z,17.90
2019-04-26T10:26:00.020Z,13.37
2019-04-26T10:28:28.783Z,14.97
2019-04-26T10:30:57.609Z,18.90
2019-04-26T10:33:26.471Z,29.67
2019-04-26T10:35:56.728Z,19.70
2019-04-26T10:38:25.712Z,22.30
2019-04-26T10:40:54.458Z,49.63
2019-04-26T10:43:23.200Z,33.20
2019-04-26T10:45:53.917Z,45.73
2019-04-26T10:48:23.328Z,19.07
2019-04-26T10:50:52.126Z,68.77
2019-04-26T10:53:25.668Z,40.83
2019-04-26T10:56:09.322Z,22.23
2019-04-26T10:58:39.749Z,33.73
2019-04-26T11:01:10.965Z,18.27
2019-04-26T11:03:39.726Z,17.23
2019-04-26T11:06:08.432Z,18.87
2019-04-26T11:08:37.157Z,18.90
2019-04-26T11:11:08.983Z,15.57
2019-04-26T11:13:37.871Z,19.90
2019-04-26T11:16:08.562Z,20.07
2019-04-26T11:18:37.303Z,26.23
2019-04-26T11:21:06.171Z,22.77
2019-04-26T11:23:34.998Z,18.73
2019-04-26T11:28:27.779Z,15.43
2019-04-26T11:30:57.508Z,15.57
2019-04-26T11:33:26.356Z,17.30
2019-04-26T11:35:55.157Z,16.60
2019-04-26T11:38:27.032Z,17.70
2019-04-26T11:41:05.951Z,14.53
2019-04-26T11:43:24.905Z,18.83
2019-04-26T11:46:03.738Z,19.77
2019-04-26T11:48:25.488Z,17.93
2019-04-26T11:50:55.055Z,25.50
2019-04-26T11:53:23.887Z,22.67
2019-04-26T11:55:52.711Z,23.13
2019-04-26T11:58:22.660Z,20.93
2019-04-26T12:00:53.619Z,24.13
2019-04-26T12:03:24.819Z,17.47
2019-04-26T12:05:54.462Z,16.53
2019-04-26T12:08:24.865Z,25.80
2019-04-26T12:10:53.693Z,16.60
2019-04-26T12:13:25.024Z,18.45
2019-04-26T12:15:54.047Z,20.77
2019-04-26T12:18:23.151Z,20.70
2019-04-26T12:20:52.082Z,26.23
2019-04-26T12:23:21.845Z,12.53
2019-04-26T12:25:50.682Z,19.55
2019-04-26T12:28:19.422Z,14.95
2019-04-26T12:30:48.236Z,23.57
2019-04-26T12:33:17.060Z,13.43
2019-04-26T12:35:45.936Z,20.68
2019-04-26T12:38:14.695Z,19.75
2019-04-26T12:40:46.206Z,16.73
2019-04-26T12:43:15.598Z,20.70
2019-04-26T12:45:47.341Z,17.65
2019-04-26T12:48:18.296Z,21.23
2019-04-26T12:50:47.126Z,17.15
2019-04-26T12:53:18.068Z,17.32
2019-04-26T12:55:49.129Z,17.87
2019-04-26T12:58:16.914Z,15.70
2019-04-26T13:00:53.833Z,24.47
2019-04-26T13:03:20.478Z,16.85
2019-04-26T13:05:49.764Z,20.08
2019-04-26T13:08:18.113Z,22.60
2019-04-26T13:10:48.575Z,23.38
2019-04-26T13:13:37.247Z,19.40
2019-04-26T13:16:13.677Z,16.10
2019-04-26T13:18:45.347Z,18.02
2019-04-26T13:21:12.929Z,23.87
2019-04-26T13:23:41.796Z,24.12
2019-04-26T13:26:10.554Z,14.55
2019-04-26T13:28:39.298Z,21.25
2019-04-26T13:31:08.099Z,21.30
2019-04-26T13:33:36.937Z,21.17
2019-04-26T13:36:05.763Z,19.35
2019-04-26T13:38:34.638Z,30.48
2019-04-26T13:41:06.122Z,35.30
2019-04-26T13:43:34.636Z,25.70
2019-04-26T13:46:20.277Z,18.95
2019-04-26T13:49:02.855Z,16.23
2019-04-26T13:51:39.265Z,13.90
2019-04-26T13:54:08.081Z,20.88
2019-04-26T13:56:37.588Z,16.67
2019-04-26T13:59:06.554Z,18.52
2019-04-26T14:01:35.434Z,15.35
2019-04-26T14:04:06.798Z,28.62
2019-04-26T14:06:34.896Z,12.35
2019-04-26T14:09:06.018Z,12.53
2019-04-26T14:11:34.888Z,16.55
2019-04-26T14:14:03.745Z,17.98
2019-04-26T14:16:32.563Z,13.78
2019-04-26T14:19:01.343Z,15.75
2019-04-26T14:21:33.183Z,18.05
2019-04-26T14:24:02.259Z,13.88
2019-04-26T14:26:39.983Z,17.27
2019-04-26T14:29:08.729Z,13.15
2019-04-26T14:31:37.535Z,21.90
2019-04-26T14:34:07.096Z,17.23
2019-04-26T14:36:36.111Z,24.05
2019-04-26T14:39:10.712Z,19.87
2019-04-26T14:41:38.325Z,14.30
2019-04-26T14:44:15.205Z,17.73
2019-04-26T14:46:48.233Z,13.80
2019-04-26T14:49:08.099Z,23.98
2019-04-26T14:51:36.923Z,20.97
2019-04-26T14:54:07.341Z,14.33
2019-04-26T14:56:36.168Z,18.87
2019-04-26T14:59:08.036Z,15.35
2019-04-26T15:01:42.605Z,14.68
2019-04-26T15:04:29.200Z,15.95
2019-04-26T15:06:59.671Z,25.30
2019-04-26T15:09:33.281Z,23.30
2019-04-26T15:12:01.354Z,18.67
2019-04-26T15:14:29.621Z,23.55
2019-04-26T15:16:58.393Z,13.72
2019-04-26T15:19:27.216Z,23.73
2019-04-26T15:21:56.029Z,14.98
2019-04-26T15:24:25.966Z,19.17
2019-04-26T15:26:58.172Z,22.98
2019-04-26T15:29:27.030Z,16.30
2019-04-26T15:31:57.251Z,14.83
2019-04-26T15:34:26.551Z,18.73
2019-04-26T15:36:55.526Z,17.57
2019-04-26T15:39:25.940Z,17.35
2019-04-26T15:41:59.330Z,18.95
2019-04-26T15:44:35.479Z,16.70
2019-04-26T15:47:06.036Z,21.97
2019-04-26T15:49:42.907Z,20.88
2019-04-26T15:52:11.891Z,16.07
2019-04-26T15:54:42.400Z,18.30
2019-04-26T15:57:12.359Z,21.50
2019-04-26T15:59:42.887Z,17.00
2019-04-26T16:02:12.490Z,19.90
2019-04-26T16:04:42.432Z,25.43
2019-04-26T16:07:16.649Z,21.60
2019-04-26T16:09:43.587Z,18.73
2019-04-26T16:12:13.371Z,25.80
2019-04-26T16:14:42.476Z,17.43
2019-04-26T16:17:12.490Z,21.40
2019-04-26T16:19:41.425Z,15.63
2019-04-26T16:22:10.346Z,15.93
2019-04-26T16:24:39.191Z,20.80
2019-04-26T16:27:08.009Z,18.93
2019-04-26T16:29:59.542Z,17.80
2019-04-26T16:32:37.367Z,24.33
2019-04-26T16:35:07.434Z,21.73
2019-04-26T16:37:36.195Z,20.90
2019-04-26T16:40:07.845Z,22.73
2019-04-26T16:42:37.269Z,21.97
2019-04-26T16:45:09.392Z,22.10
2019-04-26T16:47:45.152Z,15.80
2019-04-26T16:50:09.299Z,23.03
2019-04-26T16:52:42.218Z,19.97
2019-04-26T16:55:18.232Z,21.23
2019-04-26T16:57:43.912Z,23.83
2019-04-26T17:00:09.604Z,24.97
2019-04-26T17:02:38.409Z,34.83
2019-04-26T17:05:19.150Z,36.90
2019-04-26T17:07:39.382Z,35.83
2019-04-26T17:10:08.445Z,42.50
2019-04-26T17:12:37.294Z,48.43
2019-04-26T17:15:07.526Z,248.17
2019-04-26T17:17:36.366Z,690.60
2019-04-26T17:20:10.755Z,152.30
2019-04-26T17:22:56.239Z,234.50
2019-04-26T17:25:26.768Z,134.33
2019-04-26T17:27:53.409Z,152.13
2019-04-26T17:30:23.803Z,433.83
2019-04-26T17:32:53.598Z,491.40
2019-04-26T17:35:23.230Z,449.20
2019-04-26T17:37:52.015Z,385.27
2019-04-26T17:40:25.153Z,231.20
2019-04-26T17:42:51.275Z,97.27
2019-04-26T17:45:21.246Z,110.50
2019-04-26T17:47:50.696Z,72.30
2019-04-26T17:50:20.605Z,55.60
2019-04-26T17:52:51.424Z,58.87
2019-04-26T17:55:20.059Z,54.33
2019-04-26T17:57:50.697Z,56.07
2019-04-26T18:00:26.716Z,66.47
2019-04-26T18:02:51.534Z,46.73
2019-04-26T18:05:24.501Z,54.33
2019-04-26T18:07:59.373Z,49.23
2019-04-26T18:10:21.336Z,35.70
2019-04-26T18:12:50.800Z,36.57
2019-04-26T18:15:19.692Z,39.37
2019-04-26T18:17:53.423Z,31.83
2019-04-26T18:20:23.801Z,52.97
2019-04-26T18:22:54.212Z,41.53
2019-04-26T18:25:23.428Z,58.60
2019-04-26T18:27:53.503Z,55.23
2019-04-26T18:30:23.667Z,58.30
2019-04-26T18:32:52.518Z,58.20
2019-04-26T18:35:21.343Z,51.97
2019-04-26T18:37:50.232Z,61.30
2019-04-26T18:40:20.619Z,63.20
2019-04-26T18:42:49.642Z,59.20
2019-04-26T18:45:25.886Z,61.77
2019-04-26T18:47:48.880Z,65.40
2019-04-26T18:50:18.745Z,70.60
2019-04-26T18:52:49.276Z,66.20
2019-04-26T18:55:29.046Z,63.63
2019-04-26T18:57:55.212Z,74.30
2019-04-26T19:00:29.094Z,62.53
2019-04-26T19:03:00.040Z,75.33
2019-04-26T19:05:30.233Z,64.47
2019-04-26T19:07:59.110Z,64.47
2019-04-26T19:10:29.304Z,70.93
2019-04-26T19:13:00.371Z,70.60
2019-04-26T19:15:40.382Z,70.90
2019-04-26T19:18:06.693Z,70.43
2019-04-26T19:20:40.259Z,85.33
2019-04-26T19:23:09.483Z,101.13
2019-04-26T19:25:40.944Z,120.53
2019-04-26T19:28:08.824Z,125.87
2019-04-26T19:30:39.950Z,127.13
2019-04-26T19:33:11.591Z,146.20
2019-04-26T19:35:39.376Z,113.60
2019-04-26T19:38:13.396Z,135.23
2019-04-26T19:40:46.376Z,109.57
2019-04-26T19:43:10.100Z,104.00
2019-04-26T19:45:46.125Z,76.63
2019-04-26T19:48:20.778Z,71.27
2019-04-26T19:50:52.794Z,74.93
2019-04-26T19:53:24.806Z,87.93
2019-04-26T19:56:07.414Z,73.47
2019-04-26T19:58:45.876Z,57.80
2019-04-26T20:01:16.628Z,65.90
2019-04-26T20:03:47.270Z,56.27
2019-04-26T20:06:19.114Z,61.70
2019-04-26T20:08:49.354Z,60.00
2019-04-26T20:11:18.724Z,46.43
2019-04-26T20:13:51.874Z,41.33
2019-04-26T20:16:17.478Z,35.67
2019-04-26T20:18:46.327Z,31.87
2019-04-26T20:21:15.562Z,33.07
2019-04-26T20:23:47.420Z,30.53
2019-04-26T20:26:15.950Z,27.10
2019-04-26T20:28:44.663Z,24.70
2019-04-26T20:31:15.099Z,19.67
2019-04-26T20:33:43.854Z,26.13
2019-04-26T20:36:12.762Z,28.70
2019-04-26T20:38:45.658Z,24.50
2019-04-26T20:41:14.777Z,18.30
2019-04-26T20:43:47.002Z,25.83
2019-04-26T20:46:15.493Z,29.73
2019-04-26T20:48:43.836Z,25.00
2019-04-26T20:51:12.780Z,24.60
2019-04-26T20:53:43.649Z,29.73
2019-04-26T20:56:18.310Z,24.13
2019-04-26T20:58:46.885Z,27.37
2019-04-26T21:01:14.286Z,27.33
2019-04-26T21:03:46.060Z,31.13
2019-04-26T21:06:14.551Z,23.40
2019-04-26T21:08:43.356Z,28.87
2019-04-26T21:11:13.723Z,23.90
2019-04-26T21:13:42.707Z,26.53
2019-04-26T21:16:15.394Z,23.10
2019-04-26T21:18:44.285Z,23.23
2019-04-26T21:21:15.635Z,23.07
2019-04-26T21:23:43.994Z,19.50
2019-04-26T21:26:16.406Z,25.20
2019-04-26T21:29:06.718Z,23.80
2019-04-26T21:31:40.856Z,26.27
2019-04-26T21:34:24.337Z,28.07
2019-04-26T21:37:03.529Z,32.03
2019-04-26T21:39:39.485Z,29.20
2019-04-26T21:42:08.793Z,29.90
2019-04-26T21:44:37.606Z,31.03
2019-04-26T21:47:06.503Z,23.50
2019-04-26T21:49:38.015Z,29.17
2019-04-26T21:52:05.746Z,23.33
2019-04-26T21:54:34.527Z,18.73
2019-04-26T21:57:03.767Z,25.40
2019-04-26T21:59:35.120Z,24.57
2019-04-26T22:02:03.415Z,30.37
2019-04-26T22:04:34.197Z,23.83
2019-04-26T22:07:06.355Z,30.47
2019-04-26T22:09:36.833Z,21.43
2019-04-26T22:12:07.314Z,20.17
2019-04-26T22:14:37.728Z,23.73
2019-04-26T22:17:11.275Z,22.60
2019-04-26T22:19:44.435Z,20.93
2019-04-26T22:22:20.568Z,27.27
2019-04-26T22:24:55.486Z,23.40
2019-04-26T22:27:25.354Z,23.80
2019-04-26T22:29:55.113Z,25.70
2019-04-26T22:32:24.099Z,22.17
2019-04-26T22:34:53.884Z,25.07
2019-04-26T22:37:29.717Z,25.33
2019-04-26T22:39:54.328Z,26.17
2019-04-26T22:42:23.943Z,19.27
2019-04-26T22:44:54.400Z,20.90
2019-04-26T22:47:24.804Z,19.90
2019-04-26T22:49:53.588Z,20.10
2019-04-26T22:52:23.074Z,18.13
2019-04-26T22:54:53.698Z,19.33
2019-04-26T22:57:23.197Z,18.53
2019-04-26T22:59:53.544Z,22.83
2019-04-26T23:02:25.883Z,29.87
2019-04-26T23:04:56.030Z,19.47
2019-04-26T23:07:26.128Z,20.90
2019-04-26T23:09:55.483Z,24.93
2019-04-26T23:12:28.256Z,24.80
2019-04-26T23:15:14.151Z,17.53
2019-04-26T23:17:59.419Z,23.97
2019-04-26T23:20:34.295Z,21.63
2019-04-26T23:23:00.527Z,28.00
2019-04-26T23:25:31.183Z,27.30
2019-04-26T23:28:00.111Z,29.13
2019-04-26T23:30:31.727Z,32.53
2019-04-26T23:32:59.455Z,35.47
2019-04-26T23:35:28.780Z,39.33
2019-04-26T23:38:00.985Z,36.87
2019-04-26T23:40:28.993Z,34.13
2019-04-26T23:42:57.918Z,26.93
2019-04-26T23:45:26.743Z,24.47
2019-04-26T23:47:55.586Z,26.50
2019-04-26T23:50:25.526Z,30.40
2019-04-26T23:52:54.853Z,27.60
2019-04-26T23:55:23.707Z,22.33
2019-04-26T23:57:53.456Z,25.50
